SBOSBO YQX / CYQX
Speedbird OnlineSpeedbird Online YQX / CYQX

Gander International Airport
16:12 0°C

Location Gander, Canada
Latitude: 48.9369010925293
Longitude: -54.56809997558594
Local Time 16:12 on 23 Feb 2024
UTC -3.5 hours (America/St_Johns)
Currency £1 equals CAD 1.71
METAR CYQX 231900Z 26004KT 230V300 20SM OVC007 M00/M02 A2962 RMK SC8 SLP041
TAF TAF CYQX 231740Z 2318/2418 30010KT P6SM BKN007 TEMPO 2318/2321 BKN012 BECMG 2318/2320 18010KT FM232100 18010KT P6SM FEW008 BKN012 TEMPO 2321/2324 SCT012 FM240000 18010KT P6SM FEW012 BKN100 FM240500 22010G20KT P6SM BKN012 BKN050 OVC120 FM241000 18010G20KT 5SM -SN BKN010 OVC050 PROB30 2410/2413 3SM -FZRA BR OVC005 FM241300 18015G25KT P6SM -SHRA BKN010 OVC030 BECMG 2415/2417 18020G30KT RMK NXT FCST BY 240000Z
Weather As Of 23 Feb 2024 16:12
Description Overcast clouds
Wind 7 km/h from West (260°)
Cloud Cover 100%
Precipitation Rain: none, Snow: none
Sunrise 07:03
Sunset 17:40
Web Wikipedia
Codes IATA: YQX
ICAO: CYQX
Altitude 151 Meter / 496 Feet
Distance 3,811 KM / 2,368 Miles
from London.
Runways
RunwayLength (m)Surface
033109Asphalt
09572Asphalt
132713Asphalt
213109Asphalt
27572Asphalt
312713Asphalt
Radio
TypeDescriptionFrequency
A/DAPP/DEP128.5
ATISATIS124.8
GNDGND121.9
OPSOUTCAST OPS128.85
RCOHALIFAX RDO126.7
TWRTWR118.1
Live ATC



Support Speedbird Online

© 2017-2024 Speedbird Online